sensor_id;sensor_type;location;lat;lon;timestamp;pressure;altitude;pressure_sealevel;temperature;humidity
17607;BME280;69222;52.242;20.980;2024-02-21T00:00:05;100795.44;;;4.73;88.79
17607;BME280;69222;52.242;20.980;2024-02-21T00:02:34;100794.66;;;4.76;88.23
17607;BME280;69222;52.242;20.980;2024-02-21T00:05:03;100793.81;;;4.75;88.65
17607;BME280;69222;52.242;20.980;2024-02-21T00:07:31;100791.28;;;4.77;88.71
17607;BME280;69222;52.242;20.980;2024-02-21T00:09:59;100787.91;;;4.78;88.74
17607;BME280;69222;52.242;20.980;2024-02-21T00:12:27;100795.63;;;4.79;88.88
17607;BME280;69222;52.242;20.980;2024-02-21T00:14:55;100788.03;;;4.82;88.11
17607;BME280;69222;52.242;20.980;2024-02-21T00:17:23;100788.84;;;4.81;88.99
17607;BME280;69222;52.242;20.980;2024-02-21T00:19:54;100783.72;;;4.81;89.19
17607;BME280;69222;52.242;20.980;2024-02-21T00:22:22;100792.31;;;4.83;89.18
17607;BME280;69222;52.242;20.980;2024-02-21T00:24:50;100786.44;;;4.88;89.33
17607;BME280;69222;52.242;20.980;2024-02-21T00:27:18;100783.88;;;4.88;88.36
17607;BME280;69222;52.242;20.980;2024-02-21T00:29:46;100784.63;;;4.83;88.63
17607;BME280;69222;52.242;20.980;2024-02-21T00:32:14;100779.44;;;4.79;89.49
17607;BME280;69222;52.242;20.980;2024-02-21T00:34:43;100777.75;;;4.79;90.04
17607;BME280;69222;52.242;20.980;2024-02-21T00:37:12;100778.69;;;4.83;90.30
17607;BME280;69222;52.242;20.980;2024-02-21T00:39:40;100773.66;;;4.86;89.35
17607;BME280;69222;52.242;20.980;2024-02-21T00:42:09;100778.69;;;4.84;89.74
17607;BME280;69222;52.242;20.980;2024-02-21T00:44:37;100775.28;;;4.84;89.69
17607;BME280;69222;52.242;20.980;2024-02-21T00:47:05;100778.63;;;4.81;90.22
17607;BME280;69222;52.242;20.980;2024-02-21T00:49:33;100767.53;;;4.79;90.65
17607;BME280;69222;52.242;20.980;2024-02-21T00:52:01;100763.28;;;4.80;90.35
17607;BME280;69222;52.242;20.980;2024-02-21T00:54:30;100764.97;;;4.79;90.42
17607;BME280;69222;52.242;20.980;2024-02-21T00:57:13;100753.91;;;4.79;90.99
17607;BME280;69222;52.242;20.980;2024-02-21T00:59:41;100761.59;;;4.80;91.08
17607;BME280;69222;52.242;20.980;2024-02-21T01:02:09;100767.59;;;4.82;90.93
17607;BME280;69222;52.242;20.980;2024-02-21T01:04:37;100765.09;;;4.85;91.06
17607;BME280;69222;52.242;20.980;2024-02-21T01:07:05;100755.78;;;4.88;90.12
17607;BME280;69222;52.242;20.980;2024-02-21T01:09:35;100748.13;;;4.88;90.82
17607;BME280;69222;52.242;20.980;2024-02-21T01:12:03;100754.06;;;4.87;91.48
17607;BME280;69222;52.242;20.980;2024-02-21T01:14:31;100753.09;;;4.81;91.05
17607;BME280;69222;52.242;20.980;2024-02-21T01:16:59;100747.09;;;4.79;92.00
17607;BME280;69222;52.242;20.980;2024-02-21T01:19:28;100746.25;;;4.80;92.47
17607;BME280;69222;52.242;20.980;2024-02-21T01:21:56;100742.00;;;4.79;92.11
17607;BME280;69222;52.242;20.980;2024-02-21T01:24:24;100743.72;;;4.80;92.68
17607;BME280;69222;52.242;20.980;2024-02-21T01:26:53;100747.09;;;4.79;92.78
17607;BME280;69222;52.242;20.980;2024-02-21T01:29:21;100742.81;;;4.78;93.72
17607;BME280;69222;52.242;20.980;2024-02-21T01:31:49;100744.56;;;4.79;93.77
17607;BME280;69222;52.242;20.980;2024-02-21T01:34:17;100744.63;;;4.82;94.46
17607;BME280;69222;52.242;20.980;2024-02-21T01:36:45;100747.97;;;4.81;94.19
17607;BME280;69222;52.242;20.980;2024-02-21T01:39:13;100745.50;;;4.84;94.35
17607;BME280;69222;52.242;20.980;2024-02-21T01:41:41;100735.28;;;4.84;94.95
17607;BME280;69222;52.242;20.980;2024-02-21T01:44:10;100734.47;;;4.85;94.56
17607;BME280;69222;52.242;20.980;2024-02-21T01:46:38;100738.81;;;4.90;95.00
17607;BME280;69222;52.242;20.980;2024-02-21T01:49:10;100727.72;;;4.89;95.57
17607;BME280;69222;52.242;20.980;2024-02-21T01:51:38;100739.69;;;4.90;96.20
17607;BME280;69222;52.242;20.980;2024-02-21T01:54:07;100734.59;;;4.92;95.79
17607;BME280;69222;52.242;20.980;2024-02-21T01:56:35;100734.69;;;4.95;96.67
17607;BME280;69222;52.242;20.980;2024-02-21T01:59:03;100729.66;;;4.98;96.66
17607;BME280;69222;52.242;20.980;2024-02-21T02:01:32;100737.41;;;5.02;96.25
17607;BME280;69222;52.242;20.980;2024-02-21T02:04:02;100732.28;;;5.01;95.80
17607;BME280;69222;52.242;20.980;2024-02-21T02:06:32;100736.63;;;5.05;96.08
17607;BME280;69222;52.242;20.980;2024-02-21T02:09:00;100727.19;;;5.02;95.95
17607;BME280;69222;52.242;20.980;2024-02-21T02:11:31;100731.38;;;4.99;95.37
17607;BME280;69222;52.242;20.980;2024-02-21T02:14:00;100728.72;;;4.96;96.15
17607;BME280;69222;52.242;20.980;2024-02-21T02:16:28;100727.88;;;4.95;96.30
17607;BME280;69222;52.242;20.980;2024-02-21T02:18:57;100724.47;;;4.95;96.80
17607;BME280;69222;52.242;20.980;2024-02-21T02:21:29;100717.63;;;4.94;96.36
17607;BME280;69222;52.242;20.980;2024-02-21T02:23:59;100724.47;;;4.96;96.72
17607;BME280;69222;52.242;20.980;2024-02-21T02:26:27;100734.75;;;4.98;97.10
17607;BME280;69222;52.242;20.980;2024-02-21T02:28:55;100719.44;;;4.98;96.80
17607;BME280;69222;52.242;20.980;2024-02-21T02:31:23;100722.00;;;4.99;97.50
17607;BME280;69222;52.242;20.980;2024-02-21T02:33:51;100717.75;;;5.00;96.86
17607;BME280;69222;52.242;20.980;2024-02-21T02:36:19;100717.75;;;5.00;96.60
17607;BME280;69222;52.242;20.980;2024-02-21T02:38:47;100721.22;;;5.02;97.04
17607;BME280;69222;52.242;20.980;2024-02-21T02:41:16;100720.38;;;5.01;97.17
17607;BME280;69222;52.242;20.980;2024-02-21T02:43:44;100718.69;;;5.03;96.54
17607;BME280;69222;52.242;20.980;2024-02-21T02:46:13;100716.19;;;5.05;96.98
17607;BME280;69222;52.242;20.980;2024-02-21T02:48:41;100716.09;;;5.02;96.13
17607;BME280;69222;52.242;20.980;2024-02-21T02:51:09;100710.09;;;5.00;96.84
17607;BME280;69222;52.242;20.980;2024-02-21T02:53:37;100706.75;;;5.02;97.19
17607;BME280;69222;52.242;20.980;2024-02-21T02:56:05;100711.94;;;5.07;97.28
17607;BME280;69222;52.242;20.980;2024-02-21T02:58:35;100706.91;;;5.08;96.79
17607;BME280;69222;52.242;20.980;2024-02-21T03:01:03;100705.16;;;5.07;96.30
17607;BME280;69222;52.242;20.980;2024-02-21T03:03:31;100704.28;;;5.05;96.45
17607;BME280;69222;52.242;20.980;2024-02-21T03:05:59;100702.56;;;5.06;96.99
17607;BME280;69222;52.242;20.980;2024-02-21T03:08:27;100709.41;;;5.07;97.16
17607;BME280;69222;52.242;20.980;2024-02-21T03:10:55;100710.31;;;5.11;97.43
17607;BME280;69222;52.242;20.980;2024-02-21T03:13:23;100713.72;;;5.09;97.48
17607;BME280;69222;52.242;20.980;2024-02-21T03:15:53;100709.47;;;5.10;96.71
17607;BME280;69222;52.242;20.980;2024-02-21T03:18:21;100713.72;;;5.09;96.80
17607;BME280;69222;52.242;20.980;2024-02-21T03:20:49;100707.75;;;5.09;96.24
17607;BME280;69222;52.242;20.980;2024-02-21T03:23:17;100714.56;;;5.10;97.27
17607;BME280;69222;52.242;20.980;2024-02-21T03:25:45;100706.91;;;5.10;97.04
17607;BME280;69222;52.242;20.980;2024-02-21T03:28:13;100705.19;;;5.09;96.37
17607;BME280;69222;52.242;20.980;2024-02-21T03:30:41;100706.00;;;5.08;96.57
17607;BME280;69222;52.242;20.980;2024-02-21T03:33:10;100702.56;;;5.06;96.36
17607;BME280;69222;52.242;20.980;2024-02-21T03:35:38;100696.53;;;5.02;97.10
17607;BME280;69222;52.242;20.980;2024-02-21T03:38:06;100696.47;;;4.99;95.94
17607;BME280;69222;52.242;20.980;2024-02-21T03:40:34;100698.16;;;4.97;96.12
17607;BME280;69222;52.242;20.980;2024-02-21T03:43:03;100696.31;;;4.93;96.68
17607;BME280;69222;52.242;20.980;2024-02-21T03:45:31;100697.22;;;4.94;96.99
17607;BME280;69222;52.242;20.980;2024-02-21T03:47:59;100700.66;;;4.96;97.15
17607;BME280;69222;52.242;20.980;2024-02-21T03:50:28;100696.47;;;4.99;97.11
17607;BME280;69222;52.242;20.980;2024-02-21T03:52:56;100704.19;;;5.01;96.15
17607;BME280;69222;52.242;20.980;2024-02-21T03:55:24;100705.00;;;5.00;95.77
17607;BME280;69222;52.242;20.980;2024-02-21T03:57:52;100699.09;;;5.02;96.04
17607;BME280;69222;52.242;20.980;2024-02-21T04:00:20;100706.81;;;5.05;95.36
17607;BME280;69222;52.242;20.980;2024-02-21T04:02:50;100700.03;;;5.07;95.78
17607;BME280;69222;52.242;20.980;2024-02-21T04:05:18;100700.09;;;5.11;94.63
17607;BME280;69222;52.242;20.980;2024-02-21T04:07:47;100701.88;;;5.13;95.14
17607;BME280;69222;52.242;20.980;2024-02-21T04:10:15;100695.06;;;5.14;95.37
17607;BME280;69222;52.242;20.980;2024-02-21T04:12:43;100695.06;;;5.12;95.59
17607;BME280;69222;52.242;20.980;2024-02-21T04:15:11;100685.72;;;5.14;95.67
17607;BME280;69222;52.242;20.980;2024-02-21T04:17:39;100687.47;;;5.17;95.78
17607;BME280;69222;52.242;20.980;2024-02-21T04:20:14;100692.53;;;5.15;95.52
17607;BME280;69222;52.242;20.980;2024-02-21T04:22:43;100686.47;;;5.10;95.72
17607;BME280;69222;52.242;20.980;2024-02-21T04:25:12;100688.09;;;5.06;96.57
17607;BME280;69222;52.242;20.980;2024-02-21T04:27:40;100681.28;;;5.05;97.26
17607;BME280;69222;52.242;20.980;2024-02-21T04:30:09;100678.69;;;5.04;97.28
17607;BME280;69222;52.242;20.980;2024-02-21T04:32:38;100679.56;;;5.04;97.21
17607;BME280;69222;52.242;20.980;2024-02-21T04:35:06;100679.59;;;5.06;98.15
17607;BME280;69222;52.242;20.980;2024-02-21T04:37:35;100673.63;;;5.07;97.46
17607;BME280;69222;52.242;20.980;2024-02-21T04:40:04;100675.31;;;5.05;97.42
17607;BME280;69222;52.242;20.980;2024-02-21T04:42:33;100678.69;;;5.04;97.89
17607;BME280;69222;52.242;20.980;2024-02-21T04:45:01;100679.59;;;5.06;98.69
17607;BME280;69222;52.242;20.980;2024-02-21T04:47:29;100673.69;;;5.08;98.15
17607;BME280;69222;52.242;20.980;2024-02-21T04:49:57;100680.53;;;5.11;98.98
17607;BME280;69222;52.242;20.980;2024-02-21T04:52:26;100680.59;;;5.14;98.91
17607;BME280;69222;52.242;20.980;2024-02-21T04:54:54;100677.25;;;5.17;98.12
17607;BME280;69222;52.242;20.980;2024-02-21T04:57:22;100673.88;;;5.18;98.84
17607;BME280;69222;52.242;20.980;2024-02-21T04:59:51;100677.34;;;5.21;98.94
17607;BME280;69222;52.242;20.980;2024-02-21T05:02:19;100678.19;;;5.22;98.00
17607;BME280;69222;52.242;20.980;2024-02-21T05:04:49;100674.78;;;5.21;98.53
17607;BME280;69222;52.242;20.980;2024-02-21T05:07:17;100665.34;;;5.17;97.87
17607;BME280;69222;52.242;20.980;2024-02-21T05:09:46;100666.25;;;5.19;98.42
17607;BME280;69222;52.242;20.980;2024-02-21T05:12:14;100673.06;;;5.20;98.16
17607;BME280;69222;52.242;20.980;2024-02-21T05:14:42;100673.06;;;5.20;98.41
17607;BME280;69222;52.242;20.980;2024-02-21T05:17:11;100667.06;;;5.18;98.99
17607;BME280;69222;52.242;20.980;2024-02-21T05:19:39;100672.16;;;5.18;98.91
17607;BME280;69222;52.242;20.980;2024-02-21T05:22:07;100665.34;;;5.17;98.69
17607;BME280;69222;52.242;20.980;2024-02-21T05:24:35;100681.53;;;5.18;98.54
17607;BME280;69222;52.242;20.980;2024-02-21T05:27:04;100666.19;;;5.18;98.86
17607;BME280;69222;52.242;20.980;2024-02-21T05:29:33;100670.38;;;5.14;98.75
17607;BME280;69222;52.242;20.980;2024-02-21T05:32:02;100670.31;;;5.11;99.71
17607;BME280;69222;52.242;20.980;2024-02-21T05:34:31;100664.34;;;5.11;99.35
17607;BME280;69222;52.242;20.980;2024-02-21T05:36:59;100672.00;;;5.09;99.69
17607;BME280;69222;52.242;20.980;2024-02-21T05:39:27;100664.34;;;5.11;99.64
17607;BME280;69222;52.242;20.980;2024-02-21T05:41:56;100655.91;;;5.13;100.00
17607;BME280;69222;52.242;20.980;2024-02-21T05:44:24;100667.00;;;5.15;100.00
17607;BME280;69222;52.242;20.980;2024-02-21T05:46:53;100659.38;;;5.17;99.37
17607;BME280;69222;52.242;20.980;2024-02-21T05:49:22;100664.56;;;5.21;100.00
17607;BME280;69222;52.242;20.980;2024-02-21T05:51:51;100650.16;;;5.23;99.77
17607;BME280;69222;52.242;20.980;2024-02-21T05:54:19;100650.16;;;5.23;98.75
17607;BME280;69222;52.242;20.980;2024-02-21T05:56:47;100645.91;;;5.24;98.74
17607;BME280;69222;52.242;20.980;2024-02-21T05:59:15;100645.91;;;5.24;98.95
17607;BME280;69222;52.242;20.980;2024-02-21T06:01:43;100652.78;;;5.28;98.83
17607;BME280;69222;52.242;20.980;2024-02-21T06:04:12;100650.25;;;5.29;99.11
17607;BME280;69222;52.242;20.980;2024-02-21T06:06:42;100651.22;;;5.35;98.82
17607;BME280;69222;52.242;20.980;2024-02-21T06:09:14;100653.78;;;5.35;98.37
17607;BME280;69222;52.242;20.980;2024-02-21T06:11:44;100656.41;;;5.38;98.78
17607;BME280;69222;52.242;20.980;2024-02-21T06:14:13;100654.69;;;5.38;98.38
17607;BME280;69222;52.242;20.980;2024-02-21T06:16:43;100656.44;;;5.41;98.29
17607;BME280;69222;52.242;20.980;2024-02-21T06:19:11;100654.84;;;5.46;98.23
17607;BME280;69222;52.242;20.980;2024-02-21T06:21:39;100641.28;;;5.50;98.49
17607;BME280;69222;52.242;20.980;2024-02-21T06:24:07;100648.94;;;5.50;97.72
17607;BME280;69222;52.242;20.980;2024-02-21T06:26:39;100651.53;;;5.51;98.47
17607;BME280;69222;52.242;20.980;2024-02-21T06:29:08;100649.88;;;5.53;97.78
17607;BME280;69222;52.242;20.980;2024-02-21T06:31:37;100642.22;;;5.55;97.65
17607;BME280;69222;52.242;20.980;2024-02-21T06:34:07;100648.16;;;5.54;97.71
17607;BME280;69222;52.242;20.980;2024-02-21T06:36:39;100656.78;;;5.59;98.11
17607;BME280;69222;52.242;20.980;2024-02-21T06:39:10;100652.56;;;5.61;97.04
17607;BME280;69222;52.242;20.980;2024-02-21T06:41:41;100651.66;;;5.57;97.66
17607;BME280;69222;52.242;20.980;2024-02-21T06:44:11;100655.97;;;5.60;97.42
17607;BME280;69222;52.242;20.980;2024-02-21T06:46:42;100652.56;;;5.61;97.92
17607;BME280;69222;52.242;20.980;2024-02-21T06:49:14;100656.91;;;5.67;97.82
17607;BME280;69222;52.242;20.980;2024-02-21T06:51:43;100660.31;;;5.66;96.73
17607;BME280;69222;52.242;20.980;2024-02-21T06:54:12;100661.09;;;5.63;97.11
17607;BME280;69222;52.242;20.980;2024-02-21T06:56:42;100661.06;;;5.60;97.20
17607;BME280;69222;52.242;20.980;2024-02-21T06:59:10;100669.56;;;5.59;96.83
17607;BME280;69222;52.242;20.980;2024-02-21T07:01:45;100661.88;;;5.59;97.89
17607;BME280;69222;52.242;20.980;2024-02-21T07:04:13;100655.91;;;5.57;97.77
17607;BME280;69222;52.242;20.980;2024-02-21T07:06:41;100658.38;;;5.52;97.24
17607;BME280;69222;52.242;20.980;2024-02-21T07:09:10;100660.94;;;5.54;97.13
17607;BME280;69222;52.242;20.980;2024-02-21T07:11:38;100660.97;;;5.55;98.10
17607;BME280;69222;52.242;20.980;2024-02-21T07:14:08;100658.53;;;5.60;98.23
17607;BME280;69222;52.242;20.980;2024-02-21T07:16:36;100653.47;;;5.65;97.68
17607;BME280;69222;52.242;20.980;2024-02-21T07:19:05;100655.25;;;5.67;97.25
17607;BME280;69222;52.242;20.980;2024-02-21T07:21:33;100652.69;;;5.69;97.36
17607;BME280;69222;52.242;20.980;2024-02-21T07:24:01;100663.81;;;5.71;96.40
17607;BME280;69222;52.242;20.980;2024-02-21T07:26:29;100650.94;;;5.66;97.03
17607;BME280;69222;52.242;20.980;2024-02-21T07:28:59;100650.13;;;5.67;96.94
17607;BME280;69222;52.242;20.980;2024-02-21T07:31:29;100648.50;;;5.72;97.03
17607;BME280;69222;52.242;20.980;2024-02-21T07:33:57;100642.59;;;5.76;97.00
17607;BME280;69222;52.242;20.980;2024-02-21T07:36:28;100644.38;;;5.80;96.55
17607;BME280;69222;52.242;20.980;2024-02-21T07:38:57;100632.50;;;5.82;95.75
17607;BME280;69222;52.242;20.980;2024-02-21T07:41:25;100630.78;;;5.83;96.05
17607;BME280;69222;52.242;20.980;2024-02-21T07:43:55;100637.66;;;5.86;96.61
17607;BME280;69222;52.242;20.980;2024-02-21T07:46:23;100630.03;;;5.89;96.13
17607;BME280;69222;52.242;20.980;2024-02-21T07:48:53;100624.03;;;5.87;96.01
17607;BME280;69222;52.242;20.980;2024-02-21T07:51:21;100623.28;;;5.92;95.94
17607;BME280;69222;52.242;20.980;2024-02-21T07:53:49;100618.22;;;5.94;95.52
17607;BME280;69222;52.242;20.980;2024-02-21T07:56:17;100611.53;;;6.02;95.62
17607;BME280;69222;52.242;20.980;2024-02-21T07:58:45;100598.84;;;6.08;96.13
17607;BME280;69222;52.242;20.980;2024-02-21T08:01:18;100604.94;;;6.18;96.26
17607;BME280;69222;52.242;20.980;2024-02-21T08:03:46;100604.19;;;6.25;94.83
17607;BME280;69222;52.242;20.980;2024-02-21T08:06:16;100600.94;;;6.34;94.88
17607;BME280;69222;52.242;20.980;2024-02-21T08:08:44;100590.81;;;6.43;94.33
17607;BME280;69222;52.242;20.980;2024-02-21T08:11:13;100596.88;;;6.49;94.06
17607;BME280;69222;52.242;20.980;2024-02-21T08:13:41;100593.56;;;6.57;93.16
17607;BME280;69222;52.242;20.980;2024-02-21T08:16:11;100594.53;;;6.63;91.85
17607;BME280;69222;52.242;20.980;2024-02-21T08:18:39;100581.72;;;6.66;92.52
17607;BME280;69222;52.242;20.980;2024-02-21T08:21:10;100585.19;;;6.67;92.04
17607;BME280;69222;52.242;20.980;2024-02-21T08:23:40;100582.63;;;6.68;91.49
17607;BME280;69222;52.242;20.980;2024-02-21T08:26:11;100583.53;;;6.72;91.27
17607;BME280;69222;52.242;20.980;2024-02-21T08:28:41;100583.53;;;6.70;91.61
17607;BME280;69222;52.242;20.980;2024-02-21T08:31:18;100577.53;;;6.71;91.96
17607;BME280;69222;52.242;20.980;2024-02-21T08:33:46;100578.41;;;6.72;91.69
17607;BME280;69222;52.242;20.980;2024-02-21T08:36:17;100566.38;;;6.66;91.42
17607;BME280;69222;52.242;20.980;2024-02-21T08:38:47;100574.94;;;6.70;90.45
17607;BME280;69222;52.242;20.980;2024-02-21T08:41:15;100583.47;;;6.69;91.23
17607;BME280;69222;52.242;20.980;2024-02-21T08:43:45;100583.47;;;6.67;91.76
17607;BME280;69222;52.242;20.980;2024-02-21T08:46:13;100576.59;;;6.63;91.35
17607;BME280;69222;52.242;20.980;2024-02-21T08:48:42;100575.75;;;6.64;92.08
17607;BME280;69222;52.242;20.980;2024-02-21T08:51:12;100569.00;;;6.72;92.28
17607;BME280;69222;52.242;20.980;2024-02-21T08:53:42;100569.19;;;6.88;92.32
17607;BME280;69222;52.242;20.980;2024-02-21T08:56:14;100563.34;;;6.98;90.79
17607;BME280;69222;52.242;20.980;2024-02-21T08:58:44;100563.47;;;7.07;90.57
17607;BME280;69222;52.242;20.980;2024-02-21T09:01:14;100562.69;;;7.16;90.74
17607;BME280;69222;52.242;20.980;2024-02-21T09:03:44;100556.63;;;7.09;88.38
17607;BME280;69222;52.242;20.980;2024-02-21T09:06:13;100560.91;;;7.07;88.80
17607;BME280;69222;52.242;20.980;2024-02-21T09:08:41;100552.25;;;6.99;89.70
17607;BME280;69222;52.242;20.980;2024-02-21T09:11:09;100554.84;;;7.00;90.45
17607;BME280;69222;52.242;20.980;2024-02-21T09:13:39;100557.44;;;7.05;89.39
17607;BME280;69222;52.242;20.980;2024-02-21T09:16:07;100553.19;;;7.04;89.30
17607;BME280;69222;52.242;20.980;2024-02-21T09:18:36;100555.75;;;7.06;90.07
17607;BME280;69222;52.242;20.980;2024-02-21T09:21:04;100553.19;;;7.04;90.11
17607;BME280;69222;52.242;20.980;2024-02-21T09:23:32;100543.75;;;7.03;90.60
17607;BME280;69222;52.242;20.980;2024-02-21T09:26:00;100552.31;;;7.04;91.09
17607;BME280;69222;52.242;20.980;2024-02-21T09:28:31;100543.78;;;7.06;90.73
17607;BME280;69222;52.242;20.980;2024-02-21T09:31:03;100549.81;;;7.08;91.23
17607;BME280;69222;52.242;20.980;2024-02-21T09:33:31;100552.31;;;7.05;90.54
17607;BME280;69222;52.242;20.980;2024-02-21T09:35:59;100554.00;;;7.00;91.40
17607;BME280;69222;52.242;20.980;2024-02-21T09:38:27;100556.50;;;6.97;91.60
17607;BME280;69222;52.242;20.980;2024-02-21T09:40:59;100553.06;;;6.93;91.67
17607;BME280;69222;52.242;20.980;2024-02-21T09:43:29;100552.25;;;6.96;93.24
17607;BME280;69222;52.242;20.980;2024-02-21T09:45:58;100543.75;;;7.00;93.70
17607;BME280;69222;52.242;20.980;2024-02-21T09:48:34;100543.78;;;7.06;92.53
17607;BME280;69222;52.242;20.980;2024-02-21T09:51:09;100544.72;;;7.13;92.41
17607;BME280;69222;52.242;20.980;2024-02-21T09:53:38;100535.34;;;7.16;91.54
17607;BME280;69222;52.242;20.980;2024-02-21T09:56:14;100538.03;;;7.25;92.27
17607;BME280;69222;52.242;20.980;2024-02-21T09:58:42;100528.66;;;7.29;90.68
17607;BME280;69222;52.242;20.980;2024-02-21T10:01:11;100532.91;;;7.29;91.68
17607;BME280;69222;52.242;20.980;2024-02-21T10:03:56;100526.06;;;7.28;90.65
17607;BME280;69222;52.242;20.980;2024-02-21T10:06:25;100524.34;;;7.26;90.44
17607;BME280;69222;52.242;20.980;2024-02-21T10:08:53;100527.78;;;7.25;90.81
17607;BME280;69222;52.242;20.980;2024-02-21T10:11:24;100506.44;;;7.31;90.23
17607;BME280;69222;52.242;20.980;2024-02-21T10:14:02;100518.47;;;7.40;89.66
17607;BME280;69222;52.242;20.980;2024-02-21T10:16:31;100515.94;;;7.43;89.31
17607;BME280;69222;52.242;20.980;2024-02-21T10:19:01;100515.97;;;7.46;88.81
17607;BME280;69222;52.242;20.980;2024-02-21T10:21:30;100515.97;;;7.46;89.24
17607;BME280;69222;52.242;20.980;2024-02-21T10:23:58;100509.19;;;7.49;89.29
17607;BME280;69222;52.242;20.980;2024-02-21T10:26:26;100509.13;;;7.43;88.28
17607;BME280;69222;52.242;20.980;2024-02-21T10:28:54;100504.84;;;7.41;88.62
17607;BME280;69222;52.242;20.980;2024-02-21T10:31:25;100497.16;;;7.42;89.48
17607;BME280;69222;52.242;20.980;2024-02-21T10:33:55;100497.97;;;7.40;87.64
17607;BME280;69222;52.242;20.980;2024-02-21T10:36:25;100494.56;;;7.39;88.46
17607;BME280;69222;52.242;20.980;2024-02-21T10:38:54;100504.00;;;7.40;88.91
17607;BME280;69222;52.242;20.980;2024-02-21T10:41:23;100493.72;;;7.40;88.21
17607;BME280;69222;52.242;20.980;2024-02-21T10:43:56;100494.63;;;7.44;87.94
17607;BME280;69222;52.242;20.980;2024-02-21T10:46:25;100491.19;;;7.45;88.00
17607;BME280;69222;52.242;20.980;2024-02-21T10:49:02;100492.88;;;7.43;87.88
17607;BME280;69222;52.242;20.980;2024-02-21T10:51:37;100493.75;;;7.46;88.01
17607;BME280;69222;52.242;20.980;2024-02-21T10:54:16;100484.38;;;7.47;87.64
17607;BME280;69222;52.242;20.980;2024-02-21T10:56:51;100479.25;;;7.50;88.49
17607;BME280;69222;52.242;20.980;2024-02-21T10:59:20;100471.63;;;7.56;87.38
17607;BME280;69222;52.242;20.980;2024-02-21T11:01:51;100469.91;;;7.57;87.16
17607;BME280;69222;52.242;20.980;2024-02-21T11:04:25;100462.22;;;7.58;87.88
17607;BME280;69222;52.242;20.980;2024-02-21T11:06:56;100460.53;;;7.60;87.72
17607;BME280;69222;52.242;20.980;2024-02-21T11:09:30;100453.72;;;7.62;87.59
17607;BME280;69222;52.242;20.980;2024-02-21T11:12:02;100452.03;;;7.64;87.73
17607;BME280;69222;52.242;20.980;2024-02-21T11:14:32;100448.59;;;7.65;87.32
17607;BME280;69222;52.242;20.980;2024-02-21T11:17:02;100456.28;;;7.65;87.44
17607;BME280;69222;52.242;20.980;2024-02-21T11:19:31;100447.78;;;7.66;88.28
17607;BME280;69222;52.242;20.980;2024-02-21T11:22:01;100449.47;;;7.66;87.87
17607;BME280;69222;52.242;20.980;2024-02-21T11:24:31;100443.47;;;7.64;87.77
17607;BME280;69222;52.242;20.980;2024-02-21T11:27:08;100437.47;;;7.60;88.04
17607;BME280;69222;52.242;20.980;2024-02-21T11:29:40;100440.81;;;7.55;88.64
17607;BME280;69222;52.242;20.980;2024-02-21T11:32:10;100434.88;;;7.57;88.58
17607;BME280;69222;52.242;20.980;2024-02-21T11:34:38;100432.31;;;7.57;88.47
17607;BME280;69222;52.242;20.980;2024-02-21T11:37:15;100437.44;;;7.56;89.62
17607;BME280;69222;52.242;20.980;2024-02-21T11:39:43;100429.69;;;7.51;89.25
17607;BME280;69222;52.242;20.980;2024-02-21T11:42:12;100427.13;;;7.51;90.47
17607;BME280;69222;52.242;20.980;2024-02-21T11:44:40;100434.00;;;7.52;90.44
17607;BME280;69222;52.242;20.980;2024-02-21T11:47:09;100428.88;;;7.54;91.04
17607;BME280;69222;52.242;20.980;2024-02-21T11:49:38;100422.00;;;7.51;90.63
17607;BME280;69222;52.242;20.980;2024-02-21T11:52:07;100418.56;;;7.44;90.30
17607;BME280;69222;52.242;20.980;2024-02-21T11:54:36;100421.09;;;7.41;91.29
17607;BME280;69222;52.242;20.980;2024-02-21T11:57:04;100418.53;;;7.41;92.21
17607;BME280;69222;52.242;20.980;2024-02-21T11:59:32;100414.25;;;7.42;91.96
17607;BME280;69222;52.242;20.980;2024-02-21T12:02:01;100410.84;;;7.41;92.35
17607;BME280;69222;52.242;20.980;2024-02-21T12:04:30;100412.56;;;7.45;92.86
17607;BME280;69222;52.242;20.980;2024-02-21T12:06:59;100412.59;;;7.48;92.06
17607;BME280;69222;52.242;20.980;2024-02-21T12:09:27;100404.88;;;7.47;91.47
17607;BME280;69222;52.242;20.980;2024-02-21T12:12:01;100409.16;;;7.45;91.99
17607;BME280;69222;52.242;20.980;2024-02-21T12:14:30;100402.28;;;7.42;92.07
17607;BME280;69222;52.242;20.980;2024-02-21T12:16:59;100405.69;;;7.40;92.34
17607;BME280;69222;52.242;20.980;2024-02-21T12:19:29;100395.44;;;7.37;92.87
17607;BME280;69222;52.242;20.980;2024-02-21T12:21:59;100381.75;;;7.35;92.60
17607;BME280;69222;52.242;20.980;2024-02-21T12:24:28;100398.00;;;7.37;93.27
17607;BME280;69222;52.242;20.980;2024-02-21T12:26:57;100391.16;;;7.37;93.10
17607;BME280;69222;52.242;20.980;2024-02-21T12:29:28;100391.16;;;7.37;92.95
17607;BME280;69222;52.242;20.980;2024-02-21T12:31:57;100396.25;;;7.36;93.17
17607;BME280;69222;52.242;20.980;2024-02-21T12:34:25;100384.28;;;7.35;93.46
17607;BME280;69222;52.242;20.980;2024-02-21T12:37:10;100375.75;;;7.34;93.65
17607;BME280;69222;52.242;20.980;2024-02-21T12:39:40;100379.19;;;7.35;94.52
17607;BME280;69222;52.242;20.980;2024-02-21T12:42:08;100378.31;;;7.34;92.74
17607;BME280;69222;52.242;20.980;2024-02-21T12:44:39;100376.59;;;7.32;93.91
17607;BME280;69222;52.242;20.980;2024-02-21T12:47:10;100362.91;;;7.30;94.19
17607;BME280;69222;52.242;20.980;2024-02-21T12:49:38;100373.13;;;7.28;95.08
17607;BME280;69222;52.242;20.980;2024-02-21T12:52:11;100371.44;;;7.25;95.48
17607;BME280;69222;52.242;20.980;2024-02-21T12:54:40;100357.75;;;7.23;94.89
17607;BME280;69222;52.242;20.980;2024-02-21T12:57:09;100362.88;;;7.22;95.74
17607;BME280;69222;52.242;20.980;2024-02-21T12:59:37;100368.81;;;7.21;95.44